sensor_id;sensor_type;location;lat;lon;timestamp;pressure;altitude;pressure_sealevel;temperature
85302;BMP280;75707;46.948;7.410;2024-03-07T00:00:23;955.9875488;;;5.399169922
85302;BMP280;75707;46.948;7.410;2024-03-07T00:01:24;955.9963379;;;5.419311523
85302;BMP280;75707;46.948;7.410;2024-03-07T00:02:25;956.0342407;;;5.449523926
85302;BMP280;75707;46.948;7.410;2024-03-07T00:03:26;956.008606;;;5.449523926
85302;BMP280;75707;46.948;7.410;2024-03-07T00:04:27;956.0028076;;;5.439453125
85302;BMP280;75707;46.948;7.410;2024-03-07T00:05:29;955.9523315;;;5.439453125
85302;BMP280;75707;46.948;7.410;2024-03-07T00:06:30;955.9668579;;;5.409240723
85302;BMP280;75707;46.948;7.410;2024-03-07T00:07:31;955.9476318;;;5.419311523
85302;BMP280;75707;46.948;7.410;2024-03-07T00:08:32;955.9798584;;;5.439453125
85302;BMP280;75707;46.948;7.410;2024-03-07T00:09:34;955.9824829;;;5.439453125
85302;BMP280;75707;46.948;7.410;2024-03-07T00:10:35;955.9398193;;;5.439453125
85302;BMP280;75707;46.948;7.410;2024-03-07T00:11:37;955.9425659;;;5.419311523
85302;BMP280;75707;46.948;7.410;2024-03-07T00:12:39;955.9017944;;;5.409240723
85302;BMP280;75707;46.948;7.410;2024-03-07T00:13:40;955.8859253;;;5.449523926
85302;BMP280;75707;46.948;7.410;2024-03-07T00:15:12;955.8716431;;;5.469665527
85302;BMP280;75707;46.948;7.410;2024-03-07T00:16:13;955.8920898;;;5.50994873
85302;BMP280;75707;46.948;7.410;2024-03-07T00:17:15;955.852478;;;5.520019531
85302;BMP280;75707;46.948;7.410;2024-03-07T00:18:16;955.8134155;;;5.50994873
85302;BMP280;75707;46.948;7.410;2024-03-07T00:19:18;955.8344727;;;5.50994873
85302;BMP280;75707;46.948;7.410;2024-03-07T00:20:19;955.8290405;;;5.520019531
85302;BMP280;75707;46.948;7.410;2024-03-07T00:21:21;955.8383789;;;5.550231934
85302;BMP280;75707;46.948;7.410;2024-03-07T00:22:22;955.8061523;;;5.560302734
85302;BMP280;75707;46.948;7.410;2024-03-07T00:23:24;955.8128052;;;5.550231934
85302;BMP280;75707;46.948;7.410;2024-03-07T00:24:25;955.8401489;;;5.489807129
85302;BMP280;75707;46.948;7.410;2024-03-07T00:25:27;955.8133545;;;5.479736328
85302;BMP280;75707;46.948;7.410;2024-03-07T00:26:28;955.8325195;;;5.489807129
85302;BMP280;75707;46.948;7.410;2024-03-07T00:27:29;955.8292236;;;5.449523926
85302;BMP280;75707;46.948;7.410;2024-03-07T00:28:30;955.852356;;;5.469665527
85302;BMP280;75707;46.948;7.410;2024-03-07T00:29:31;955.8423462;;;5.419311523
85302;BMP280;75707;46.948;7.410;2024-03-07T00:30:33;955.8300171;;;5.419311523
85302;BMP280;75707;46.948;7.410;2024-03-07T00:31:34;955.7998657;;;5.419311523
85302;BMP280;75707;46.948;7.410;2024-03-07T00:32:36;955.7606201;;;5.409240723
85302;BMP280;75707;46.948;7.410;2024-03-07T00:33:38;955.7754517;;;5.399169922
85302;BMP280;75707;46.948;7.410;2024-03-07T00:34:39;955.7285767;;;5.37902832
85302;BMP280;75707;46.948;7.410;2024-03-07T00:36:11;955.7355957;;;5.409240723
85302;BMP280;75707;46.948;7.410;2024-03-07T00:37:12;955.7201538;;;5.409240723
85302;BMP280;75707;46.948;7.410;2024-03-07T00:38:13;955.774231;;;5.419311523
85302;BMP280;75707;46.948;7.410;2024-03-07T00:39:14;955.757019;;;5.409240723
85302;BMP280;75707;46.948;7.410;2024-03-07T00:40:15;955.7667236;;;5.439453125
85302;BMP280;75707;46.948;7.410;2024-03-07T00:41:16;955.7575073;;;5.439453125
85302;BMP280;75707;46.948;7.410;2024-03-07T00:42:17;955.7592163;;;5.439453125
85302;BMP280;75707;46.948;7.410;2024-03-07T00:43:18;955.7856445;;;5.439453125
85302;BMP280;75707;46.948;7.410;2024-03-07T00:44:19;955.7687378;;;5.479736328
85302;BMP280;75707;46.948;7.410;2024-03-07T00:45:19;955.7929688;;;5.439453125
85302;BMP280;75707;46.948;7.410;2024-03-07T00:46:21;955.7454834;;;5.449523926
85302;BMP280;75707;46.948;7.410;2024-03-07T00:47:22;955.7142334;;;5.469665527
85302;BMP280;75707;46.948;7.410;2024-03-07T00:48:23;955.7259521;;;5.479736328
85302;BMP280;75707;46.948;7.410;2024-03-07T00:49:24;955.7629395;;;5.489807129
85302;BMP280;75707;46.948;7.410;2024-03-07T00:50:26;955.7424927;;;5.479736328
85302;BMP280;75707;46.948;7.410;2024-03-07T00:51:27;955.7304077;;;5.479736328
85302;BMP280;75707;46.948;7.410;2024-03-07T00:52:28;955.7299805;;;5.489807129
85302;BMP280;75707;46.948;7.410;2024-03-07T00:53:29;955.7601318;;;5.50994873
85302;BMP280;75707;46.948;7.410;2024-03-07T00:54:30;955.7265625;;;5.520019531
85302;BMP280;75707;46.948;7.410;2024-03-07T00:55:32;955.7584229;;;5.50994873
85302;BMP280;75707;46.948;7.410;2024-03-07T00:56:33;955.762207;;;5.520019531
85302;BMP280;75707;46.948;7.410;2024-03-07T00:57:34;955.6918945;;;5.550231934
85302;BMP280;75707;46.948;7.410;2024-03-07T00:58:36;955.7337646;;;5.550231934
85302;BMP280;75707;46.948;7.410;2024-03-07T00:59:37;955.7601318;;;5.560302734
85302;BMP280;75707;46.948;7.410;2024-03-07T01:00:39;955.7374878;;;5.520019531
85302;BMP280;75707;46.948;7.410;2024-03-07T01:02:12;955.7020874;;;5.550231934
85302;BMP280;75707;46.948;7.410;2024-03-07T01:03:14;955.7318115;;;5.50994873
85302;BMP280;75707;46.948;7.410;2024-03-07T01:04:15;955.7316284;;;5.550231934
85302;BMP280;75707;46.948;7.410;2024-03-07T01:05:17;955.72052;;;5.520019531
85302;BMP280;75707;46.948;7.410;2024-03-07T01:06:18;955.6942139;;;5.520019531
85302;BMP280;75707;46.948;7.410;2024-03-07T01:07:20;955.7076416;;;5.520019531
85302;BMP280;75707;46.948;7.410;2024-03-07T01:08:21;955.6867676;;;5.50994873
85302;BMP280;75707;46.948;7.410;2024-03-07T01:09:23;955.6690674;;;5.520019531
85302;BMP280;75707;46.948;7.410;2024-03-07T01:10:24;955.6365356;;;5.550231934
85302;BMP280;75707;46.948;7.410;2024-03-07T01:11:26;955.6674805;;;5.50994873
85302;BMP280;75707;46.948;7.410;2024-03-07T01:12:28;955.6342163;;;5.580444336
85302;BMP280;75707;46.948;7.410;2024-03-07T01:13:28;955.6146851;;;5.650939941
85302;BMP280;75707;46.948;7.410;2024-03-07T01:14:30;955.5837402;;;5.661010742
85302;BMP280;75707;46.948;7.410;2024-03-07T01:15:31;955.5310059;;;5.661010742
85302;BMP280;75707;46.948;7.410;2024-03-07T01:16:32;955.5783081;;;5.661010742
85302;BMP280;75707;46.948;7.410;2024-03-07T01:17:34;955.5406494;;;5.671081543
85302;BMP280;75707;46.948;7.410;2024-03-07T01:18:35;955.5675049;;;5.671081543
85302;BMP280;75707;46.948;7.410;2024-03-07T01:19:36;955.5037231;;;5.661010742
85302;BMP280;75707;46.948;7.410;2024-03-07T01:20:38;955.4992065;;;5.661010742
85302;BMP280;75707;46.948;7.410;2024-03-07T01:22:10;955.4993896;;;5.661010742
85302;BMP280;75707;46.948;7.410;2024-03-07T01:23:11;955.4972534;;;5.661010742
85302;BMP280;75707;46.948;7.410;2024-03-07T01:24:13;955.4494019;;;5.701293945
85302;BMP280;75707;46.948;7.410;2024-03-07T01:25:15;955.454834;;;5.731506348
85302;BMP280;75707;46.948;7.410;2024-03-07T01:26:16;955.428894;;;5.771789551
85302;BMP280;75707;46.948;7.410;2024-03-07T01:27:17;955.4368896;;;5.802001953
85302;BMP280;75707;46.948;7.410;2024-03-07T01:28:19;955.4375;;;5.802001953
85302;BMP280;75707;46.948;7.410;2024-03-07T01:29:20;955.4459229;;;5.842285156
85302;BMP280;75707;46.948;7.410;2024-03-07T01:30:21;955.3859863;;;5.872497559
85302;BMP280;75707;46.948;7.410;2024-03-07T01:31:22;955.3666382;;;5.882568359
85302;BMP280;75707;46.948;7.410;2024-03-07T01:32:24;955.3383789;;;5.922851563
85302;BMP280;75707;46.948;7.410;2024-03-07T01:33:25;955.3632813;;;5.953063965
85302;BMP280;75707;46.948;7.410;2024-03-07T01:34:26;955.375;;;5.983276367
85302;BMP280;75707;46.948;7.410;2024-03-07T01:35:28;955.3297729;;;5.993347168
85302;BMP280;75707;46.948;7.410;2024-03-07T01:36:29;955.350769;;;6.01348877
85302;BMP280;75707;46.948;7.410;2024-03-07T01:37:30;955.289978;;;6.02355957
85302;BMP280;75707;46.948;7.410;2024-03-07T01:38:31;955.3046875;;;5.983276367
85302;BMP280;75707;46.948;7.410;2024-03-07T01:39:31;955.2692261;;;5.983276367
85302;BMP280;75707;46.948;7.410;2024-03-07T01:40:32;955.2564087;;;5.922851563
85302;BMP280;75707;46.948;7.410;2024-03-07T01:41:33;955.2765503;;;5.872497559
85302;BMP280;75707;46.948;7.410;2024-03-07T01:42:34;955.2846069;;;5.902709961
85302;BMP280;75707;46.948;7.410;2024-03-07T01:43:36;955.2644043;;;5.902709961
85302;BMP280;75707;46.948;7.410;2024-03-07T01:44:37;955.2416992;;;5.872497559
85302;BMP280;75707;46.948;7.410;2024-03-07T01:45:38;955.1899414;;;5.882568359
85302;BMP280;75707;46.948;7.410;2024-03-07T01:47:10;955.1963501;;;5.872497559
85302;BMP280;75707;46.948;7.410;2024-03-07T01:48:11;955.1899414;;;5.872497559
85302;BMP280;75707;46.948;7.410;2024-03-07T01:49:12;955.1963501;;;5.852355957
85302;BMP280;75707;46.948;7.410;2024-03-07T01:50:13;955.1862793;;;5.902709961
85302;BMP280;75707;46.948;7.410;2024-03-07T01:51:15;955.171814;;;5.902709961
85302;BMP280;75707;46.948;7.410;2024-03-07T01:52:16;955.1339111;;;5.902709961
85302;BMP280;75707;46.948;7.410;2024-03-07T01:53:17;955.1210938;;;5.872497559
85302;BMP280;75707;46.948;7.410;2024-03-07T01:54:18;955.1066284;;;5.872497559
85302;BMP280;75707;46.948;7.410;2024-03-07T01:55:19;955.1123657;;;5.842285156
85302;BMP280;75707;46.948;7.410;2024-03-07T01:56:20;955.1082764;;;5.852355957
85302;BMP280;75707;46.948;7.410;2024-03-07T01:57:21;955.1140747;;;5.842285156
85302;BMP280;75707;46.948;7.410;2024-03-07T01:58:22;955.1054688;;;5.882568359
85302;BMP280;75707;46.948;7.410;2024-03-07T01:59:23;955.1174927;;;5.902709961
85302;BMP280;75707;46.948;7.410;2024-03-07T02:00:24;955.1170044;;;5.932922363
85302;BMP280;75707;46.948;7.410;2024-03-07T02:01:25;955.1031494;;;5.902709961
85302;BMP280;75707;46.948;7.410;2024-03-07T02:02:26;955.0979614;;;5.932922363
85302;BMP280;75707;46.948;7.410;2024-03-07T02:03:27;955.0828857;;;5.922851563
85302;BMP280;75707;46.948;7.410;2024-03-07T02:04:29;955.0179443;;;5.902709961
85302;BMP280;75707;46.948;7.410;2024-03-07T02:05:29;955.0326538;;;5.932922363
85302;BMP280;75707;46.948;7.410;2024-03-07T02:06:31;955.0283813;;;5.963134766
85302;BMP280;75707;46.948;7.410;2024-03-07T02:07:34;954.9812622;;;5.953063965
85302;BMP280;75707;46.948;7.410;2024-03-07T02:08:35;954.9714355;;;5.953063965
85302;BMP280;75707;46.948;7.410;2024-03-07T02:09:36;954.9494019;;;5.932922363
85302;BMP280;75707;46.948;7.410;2024-03-07T02:10:36;954.9307251;;;5.882568359
85302;BMP280;75707;46.948;7.410;2024-03-07T02:11:37;954.9074707;;;5.902709961
85302;BMP280;75707;46.948;7.410;2024-03-07T02:12:38;954.8891602;;;5.922851563
85302;BMP280;75707;46.948;7.410;2024-03-07T02:14:09;954.9012451;;;5.902709961
85302;BMP280;75707;46.948;7.410;2024-03-07T02:15:09;954.8670044;;;5.902709961
85302;BMP280;75707;46.948;7.410;2024-03-07T02:16:10;954.8734131;;;5.882568359
85302;BMP280;75707;46.948;7.410;2024-03-07T02:17:11;954.897583;;;5.902709961
85302;BMP280;75707;46.948;7.410;2024-03-07T02:18:12;954.8695068;;;5.882568359
85302;BMP280;75707;46.948;7.410;2024-03-07T02:19:14;954.907959;;;5.922851563
85302;BMP280;75707;46.948;7.410;2024-03-07T02:20:13;954.8565674;;;5.932922363
85302;BMP280;75707;46.948;7.410;2024-03-07T02:21:14;954.850769;;;5.953063965
85302;BMP280;75707;46.948;7.410;2024-03-07T02:22:14;954.8470459;;;5.932922363
85302;BMP280;75707;46.948;7.410;2024-03-07T02:23:15;954.8311157;;;5.932922363
85302;BMP280;75707;46.948;7.410;2024-03-07T02:24:16;954.8412476;;;5.922851563
85302;BMP280;75707;46.948;7.410;2024-03-07T02:25:16;954.8240356;;;5.932922363
85302;BMP280;75707;46.948;7.410;2024-03-07T02:26:17;954.7930298;;;5.953063965
85302;BMP280;75707;46.948;7.410;2024-03-07T02:27:18;954.7937622;;;5.963134766
85302;BMP280;75707;46.948;7.410;2024-03-07T02:28:19;954.8036499;;;5.932922363
85302;BMP280;75707;46.948;7.410;2024-03-07T02:29:20;954.819519;;;5.993347168
85302;BMP280;75707;46.948;7.410;2024-03-07T02:30:21;954.803894;;;6.01348877
85302;BMP280;75707;46.948;7.410;2024-03-07T02:31:23;954.758728;;;6.033630371
85302;BMP280;75707;46.948;7.410;2024-03-07T02:32:24;954.7932739;;;6.083984375
85302;BMP280;75707;46.948;7.410;2024-03-07T02:33:25;954.769043;;;6.114196777
85302;BMP280;75707;46.948;7.410;2024-03-07T02:34:25;954.7943726;;;6.134338379
85302;BMP280;75707;46.948;7.410;2024-03-07T02:35:26;954.7362671;;;6.14440918
85302;BMP280;75707;46.948;7.410;2024-03-07T02:36:27;954.7439575;;;6.194763184
85302;BMP280;75707;46.948;7.410;2024-03-07T02:37:28;954.7463989;;;6.214904785
85302;BMP280;75707;46.948;7.410;2024-03-07T02:38:28;954.7595215;;;6.214904785
85302;BMP280;75707;46.948;7.410;2024-03-07T02:39:29;954.7253418;;;6.214904785
85302;BMP280;75707;46.948;7.410;2024-03-07T02:40:30;954.7040405;;;6.245117188
85302;BMP280;75707;46.948;7.410;2024-03-07T02:41:30;954.7195435;;;6.265258789
85302;BMP280;75707;46.948;7.410;2024-03-07T02:42:31;954.6976318;;;6.265258789
85302;BMP280;75707;46.948;7.410;2024-03-07T02:43:32;954.6972656;;;6.27532959
85302;BMP280;75707;46.948;7.410;2024-03-07T02:44:33;954.6807861;;;6.235046387
85302;BMP280;75707;46.948;7.410;2024-03-07T02:45:33;954.6771851;;;6.235046387
85302;BMP280;75707;46.948;7.410;2024-03-07T02:46:34;954.6793823;;;6.194763184
85302;BMP280;75707;46.948;7.410;2024-03-07T02:47:35;954.6519775;;;6.194763184
85302;BMP280;75707;46.948;7.410;2024-03-07T02:48:36;954.6503906;;;6.174621582
85302;BMP280;75707;46.948;7.410;2024-03-07T02:49:37;954.6723633;;;6.164550781
85302;BMP280;75707;46.948;7.410;2024-03-07T02:50:38;954.6849976;;;6.114196777
85302;BMP280;75707;46.948;7.410;2024-03-07T02:52:10;954.7111816;;;6.114196777
85302;BMP280;75707;46.948;7.410;2024-03-07T02:53:11;954.6610718;;;6.104125977
85302;BMP280;75707;46.948;7.410;2024-03-07T02:54:12;954.616394;;;6.063842773
85302;BMP280;75707;46.948;7.410;2024-03-07T02:55:12;954.6501465;;;6.053771973
85302;BMP280;75707;46.948;7.410;2024-03-07T02:56:13;954.6409302;;;6.053771973
85302;BMP280;75707;46.948;7.410;2024-03-07T02:57:14;954.628418;;;6.063842773
85302;BMP280;75707;46.948;7.410;2024-03-07T02:58:15;954.6879883;;;6.053771973
85302;BMP280;75707;46.948;7.410;2024-03-07T02:59:16;954.6674805;;;6.033630371
85302;BMP280;75707;46.948;7.410;2024-03-07T03:00:17;954.6271362;;;6.053771973
85302;BMP280;75707;46.948;7.410;2024-03-07T03:01:17;954.633606;;;6.063842773
85302;BMP280;75707;46.948;7.410;2024-03-07T03:02:18;954.6882935;;;6.063842773
85302;BMP280;75707;46.948;7.410;2024-03-07T03:03:19;954.6437378;;;6.063842773
85302;BMP280;75707;46.948;7.410;2024-03-07T03:04:20;954.6745605;;;6.063842773
85302;BMP280;75707;46.948;7.410;2024-03-07T03:05:21;954.6414185;;;6.104125977
85302;BMP280;75707;46.948;7.410;2024-03-07T03:06:21;954.6182251;;;6.114196777
85302;BMP280;75707;46.948;7.410;2024-03-07T03:07:22;954.6398315;;;6.083984375
85302;BMP280;75707;46.948;7.410;2024-03-07T03:08:23;954.6068726;;;6.114196777
85302;BMP280;75707;46.948;7.410;2024-03-07T03:09:24;954.6116943;;;6.104125977
85302;BMP280;75707;46.948;7.410;2024-03-07T03:10:25;954.6026611;;;6.083984375
85302;BMP280;75707;46.948;7.410;2024-03-07T03:11:25;954.5999146;;;6.114196777
85302;BMP280;75707;46.948;7.410;2024-03-07T03:12:26;954.6192017;;;6.134338379
85302;BMP280;75707;46.948;7.410;2024-03-07T03:13:27;954.5892334;;;6.114196777
85302;BMP280;75707;46.948;7.410;2024-03-07T03:14:27;954.5779419;;;6.104125977
85302;BMP280;75707;46.948;7.410;2024-03-07T03:15:28;954.6099854;;;6.083984375
85302;BMP280;75707;46.948;7.410;2024-03-07T03:16:29;954.5939331;;;6.104125977
85302;BMP280;75707;46.948;7.410;2024-03-07T03:17:29;954.6051636;;;6.104125977
85302;BMP280;75707;46.948;7.410;2024-03-07T03:18:30;954.5588989;;;6.083984375
85302;BMP280;75707;46.948;7.410;2024-03-07T03:19:30;954.5410767;;;6.063842773
85302;BMP280;75707;46.948;7.410;2024-03-07T03:20:31;954.5490112;;;6.053771973
85302;BMP280;75707;46.948;7.410;2024-03-07T03:21:32;954.5263062;;;6.02355957
85302;BMP280;75707;46.948;7.410;2024-03-07T03:22:32;954.5482178;;;6.01348877
85302;BMP280;75707;46.948;7.410;2024-03-07T03:23:33;954.519043;;;5.993347168
85302;BMP280;75707;46.948;7.410;2024-03-07T03:24:34;954.4873657;;;5.983276367
85302;BMP280;75707;46.948;7.410;2024-03-07T03:25:34;954.5232544;;;5.983276367
85302;BMP280;75707;46.948;7.410;2024-03-07T03:26:35;954.5466919;;;5.993347168
85302;BMP280;75707;46.948;7.410;2024-03-07T03:27:36;954.5343628;;;5.993347168
85302;BMP280;75707;46.948;7.410;2024-03-07T03:28:37;954.5552979;;;6.01348877
85302;BMP280;75707;46.948;7.410;2024-03-07T03:30:08;954.5499268;;;6.01348877
85302;BMP280;75707;46.948;7.410;2024-03-07T03:31:09;954.5181274;;;6.02355957
85302;BMP280;75707;46.948;7.410;2024-03-07T03:32:10;954.5289307;;;5.993347168
85302;BMP280;75707;46.948;7.410;2024-03-07T03:33:10;954.508728;;;6.02355957
85302;BMP280;75707;46.948;7.410;2024-03-07T03:34:11;954.5272827;;;6.02355957
85302;BMP280;75707;46.948;7.410;2024-03-07T03:35:12;954.4838257;;;6.033630371
85302;BMP280;75707;46.948;7.410;2024-03-07T03:36:13;954.4412231;;;6.033630371
85302;BMP280;75707;46.948;7.410;2024-03-07T03:37:13;954.4790039;;;6.053771973
85302;BMP280;75707;46.948;7.410;2024-03-07T03:38:14;954.4196777;;;6.063842773
85302;BMP280;75707;46.948;7.410;2024-03-07T03:39:14;954.4057617;;;6.083984375
85302;BMP280;75707;46.948;7.410;2024-03-07T03:40:15;954.4170532;;;6.053771973
85302;BMP280;75707;46.948;7.410;2024-03-07T03:41:16;954.4468994;;;6.053771973
85302;BMP280;75707;46.948;7.410;2024-03-07T03:42:17;954.4299316;;;6.053771973
85302;BMP280;75707;46.948;7.410;2024-03-07T03:43:17;954.4425049;;;6.053771973
85302;BMP280;75707;46.948;7.410;2024-03-07T03:44:18;954.4257813;;;6.02355957
85302;BMP280;75707;46.948;7.410;2024-03-07T03:45:18;954.4400024;;;5.993347168
85302;BMP280;75707;46.948;7.410;2024-03-07T03:46:19;954.4067383;;;5.902709961
85302;BMP280;75707;46.948;7.410;2024-03-07T03:47:20;954.4143677;;;5.902709961
85302;BMP280;75707;46.948;7.410;2024-03-07T03:48:20;954.3809204;;;5.852355957
85302;BMP280;75707;46.948;7.410;2024-03-07T03:49:21;954.3817749;;;5.771789551
85302;BMP280;75707;46.948;7.410;2024-03-07T03:50:22;954.3731079;;;5.781860352
85302;BMP280;75707;46.948;7.410;2024-03-07T03:51:22;954.3926392;;;5.771789551
85302;BMP280;75707;46.948;7.410;2024-03-07T03:52:23;954.3709106;;;5.751647949
85302;BMP280;75707;46.948;7.410;2024-03-07T03:53:24;954.369873;;;5.731506348
85302;BMP280;75707;46.948;7.410;2024-03-07T03:54:25;954.3535767;;;5.751647949
85302;BMP280;75707;46.948;7.410;2024-03-07T03:55:28;954.3632813;;;5.741577148
85302;BMP280;75707;46.948;7.410;2024-03-07T03:56:29;954.3685303;;;5.751647949
85302;BMP280;75707;46.948;7.410;2024-03-07T03:58:30;954.3334961;;;5.701293945
85302;BMP280;75707;46.948;7.410;2024-03-07T03:59:31;954.3494263;;;5.731506348
85302;BMP280;75707;46.948;7.410;2024-03-07T04:00:31;954.3538208;;;5.731506348
85302;BMP280;75707;46.948;7.410;2024-03-07T04:01:32;954.2988892;;;5.701293945
85302;BMP280;75707;46.948;7.410;2024-03-07T04:02:33;954.3165894;;;5.701293945
85302;BMP280;75707;46.948;7.410;2024-03-07T04:03:33;954.2878418;;;5.731506348
85302;BMP280;75707;46.948;7.410;2024-03-07T04:04:34;954.2909546;;;5.741577148
85302;BMP280;75707;46.948;7.410;2024-03-07T04:05:35;954.2977295;;;5.741577148
85302;BMP280;75707;46.948;7.410;2024-03-07T04:07:41;954.2789307;;;5.701293945
85302;BMP280;75707;46.948;7.410;2024-03-07T04:09:08;954.2867432;;;5.691223145
85302;BMP280;75707;46.948;7.410;2024-03-07T04:10:09;954.2790527;;;5.650939941
85302;BMP280;75707;46.948;7.410;2024-03-07T04:11:10;954.2977905;;;5.691223145
85302;BMP280;75707;46.948;7.410;2024-03-07T04:12:10;954.3016968;;;5.620727539
85302;BMP280;75707;46.948;7.410;2024-03-07T04:13:11;954.3128662;;;5.620727539
85302;BMP280;75707;46.948;7.410;2024-03-07T04:14:12;954.2854614;;;5.600585938
85302;BMP280;75707;46.948;7.410;2024-03-07T04:15:14;954.2792358;;;5.590515137
85302;BMP280;75707;46.948;7.410;2024-03-07T04:16:14;954.2998657;;;5.580444336
85302;BMP280;75707;46.948;7.410;2024-03-07T04:17:14;954.279541;;;5.580444336
85302;BMP280;75707;46.948;7.410;2024-03-07T04:18:15;954.2841187;;;5.580444336
85302;BMP280;75707;46.948;7.410;2024-03-07T04:19:16;954.246582;;;5.580444336
85302;BMP280;75707;46.948;7.410;2024-03-07T04:20:16;954.2383423;;;5.580444336
85302;BMP280;75707;46.948;7.410;2024-03-07T04:21:17;954.25;;;5.590515137
85302;BMP280;75707;46.948;7.410;2024-03-07T04:22:18;954.2773438;;;5.600585938
85302;BMP280;75707;46.948;7.410;2024-03-07T04:23:19;954.2612305;;;5.620727539
85302;BMP280;75707;46.948;7.410;2024-03-07T04:24:19;954.2597046;;;5.650939941
85302;BMP280;75707;46.948;7.410;2024-03-07T04:25:20;954.2645264;;;5.650939941
85302;BMP280;75707;46.948;7.410;2024-03-07T04:26:21;954.2070313;;;5.661010742
85302;BMP280;75707;46.948;7.410;2024-03-07T04:27:22;954.2337646;;;5.661010742
85302;BMP280;75707;46.948;7.410;2024-03-07T04:28:22;954.2675171;;;5.661010742
85302;BMP280;75707;46.948;7.410;2024-03-07T04:29:23;954.2514038;;;5.661010742
85302;BMP280;75707;46.948;7.410;2024-03-07T04:30:24;954.2546997;;;5.661010742
85302;BMP280;75707;46.948;7.410;2024-03-07T04:31:24;954.2765503;;;5.671081543
85302;BMP280;75707;46.948;7.410;2024-03-07T04:32:25;954.2427979;;;5.701293945
85302;BMP280;75707;46.948;7.410;2024-03-07T04:33:26;954.251709;;;5.731506348
85302;BMP280;75707;46.948;7.410;2024-03-07T04:34:27;954.2544556;;;5.731506348
85302;BMP280;75707;46.948;7.410;2024-03-07T04:35:27;954.2382202;;;5.731506348
85302;BMP280;75707;46.948;7.410;2024-03-07T04:36:28;954.2785645;;;5.741577148
85302;BMP280;75707;46.948;7.410;2024-03-07T04:37:29;954.2531128;;;5.741577148
85302;BMP280;75707;46.948;7.410;2024-03-07T04:38:29;954.2365112;;;5.731506348
85302;BMP280;75707;46.948;7.410;2024-03-07T04:39:30;954.2315674;;;5.741577148
85302;BMP280;75707;46.948;7.410;2024-03-07T04:40:31;954.1994019;;;5.751647949
85302;BMP280;75707;46.948;7.410;2024-03-07T04:41:31;954.2600098;;;5.731506348
85302;BMP280;75707;46.948;7.410;2024-03-07T04:42:32;954.2348633;;;5.741577148
85302;BMP280;75707;46.948;7.410;2024-03-07T04:43:33;954.2268677;;;5.771789551
85302;BMP280;75707;46.948;7.410;2024-03-07T04:44:34;954.2235718;;;5.781860352
85302;BMP280;75707;46.948;7.410;2024-03-07T04:45:34;954.2455444;;;5.802001953
85302;BMP280;75707;46.948;7.410;2024-03-07T04:46:35;954.2332764;;;5.781860352
85302;BMP280;75707;46.948;7.410;2024-03-07T04:47:35;954.2664795;;;5.781860352
85302;BMP280;75707;46.948;7.410;2024-03-07T04:48:36;954.242981;;;5.802001953
85302;BMP280;75707;46.948;7.410;2024-03-07T04:50:08;954.2515869;;;5.771789551
85302;BMP280;75707;46.948;7.410;2024-03-07T04:51:08;954.258606;;;5.771789551
85302;BMP280;75707;46.948;7.410;2024-03-07T04:52:09;954.2650146;;;5.751647949
85302;BMP280;75707;46.948;7.410;2024-03-07T04:53:10;954.2435303;;;5.771789551
85302;BMP280;75707;46.948;7.410;2024-03-07T04:54:10;954.2374878;;;5.701293945
85302;BMP280;75707;46.948;7.410;2024-03-07T04:55:11;954.2873535;;;5.691223145
85302;BMP280;75707;46.948;7.410;2024-03-07T04:56:12;954.263855;;;5.731506348
85302;BMP280;75707;46.948;7.410;2024-03-07T04:57:13;954.2803345;;;5.701293945
85302;BMP280;75707;46.948;7.410;2024-03-07T04:58:13;954.2254639;;;5.691223145
85302;BMP280;75707;46.948;7.410;2024-03-07T04:59:14;954.223877;;;5.671081543
85302;BMP280;75707;46.948;7.410;2024-03-07T05:00:15;954.2114258;;;5.671081543
85302;BMP280;75707;46.948;7.410;2024-03-07T05:01:15;954.2011108;;;5.650939941
85302;BMP280;75707;46.948;7.410;2024-03-07T05:02:16;954.2014771;;;5.650939941
85302;BMP280;75707;46.948;7.410;2024-03-07T05:03:16;954.1825562;;;5.650939941
85302;BMP280;75707;46.948;7.410;2024-03-07T05:04:17;954.185791;;;5.63079834
85302;BMP280;75707;46.948;7.410;2024-03-07T05:05:18;954.2290649;;;5.650939941
85302;BMP280;75707;46.948;7.410;2024-03-07T05:06:19;954.175415;;;5.63079834
85302;BMP280;75707;46.948;7.410;2024-03-07T05:07:19;954.2153931;;;5.590515137
85302;BMP280;75707;46.948;7.410;2024-03-07T05:08:20;954.1777954;;;5.600585938
85302;BMP280;75707;46.948;7.410;2024-03-07T05:09:21;954.1598511;;;5.590515137
85302;BMP280;75707;46.948;7.410;2024-03-07T05:10:21;954.1552124;;;5.590515137
85302;BMP280;75707;46.948;7.410;2024-03-07T05:11:22;954.184082;;;5.560302734
85302;BMP280;75707;46.948;7.410;2024-03-07T05:12:23;954.1559448;;;5.520019531
85302;BMP280;75707;46.948;7.410;2024-03-07T05:13:24;954.1624756;;;5.50994873
85302;BMP280;75707;46.948;7.410;2024-03-07T05:14:24;954.1876831;;;5.469665527
85302;BMP280;75707;46.948;7.410;2024-03-07T05:15:25;954.1427612;;;5.439453125
85302;BMP280;75707;46.948;7.410;2024-03-07T05:16:26;954.1951294;;;5.419311523
85302;BMP280;75707;46.948;7.410;2024-03-07T05:17:27;954.1496582;;;5.37902832
85302;BMP280;75707;46.948;7.410;2024-03-07T05:18:27;954.1755981;;;5.37902832